createdAt,value
2023-05-27T00:00:49.052Z,4.57
2023-05-27T00:03:16.953Z,5.07
2023-05-27T00:05:46.332Z,5.13
2023-05-27T00:08:14.225Z,5.10
2023-05-27T00:10:42.308Z,4.93
2023-05-27T00:13:10.045Z,4.93
2023-05-27T00:15:37.853Z,4.10
2023-05-27T00:18:06.159Z,4.53
2023-05-27T00:20:34.124Z,4.73
2023-05-27T00:23:03.427Z,5.50
2023-05-27T00:25:32.717Z,4.60
2023-05-27T00:28:01.656Z,4.70
2023-05-27T00:30:29.446Z,4.63
2023-05-27T00:32:57.836Z,3.90
2023-05-27T00:35:25.881Z,4.60
2023-05-27T00:37:53.632Z,4.37
2023-05-27T00:40:23.895Z,4.60
2023-05-27T00:42:52.086Z,5.10
2023-05-27T00:45:19.895Z,4.80
2023-05-27T00:47:47.849Z,4.97
2023-05-27T00:50:16.191Z,4.60
2023-05-27T00:52:43.962Z,4.80
2023-05-27T00:55:12.191Z,4.77
2023-05-27T00:57:41.574Z,4.60
2023-05-27T01:00:12.213Z,4.73
2023-05-27T01:02:43.659Z,4.77
2023-05-27T01:05:13.477Z,4.90
2023-05-27T01:07:47.565Z,4.93
2023-05-27T01:10:19.795Z,4.60
2023-05-27T01:12:53.016Z,5.40
2023-05-27T01:15:21.662Z,5.50
2023-05-27T01:17:49.778Z,5.60
2023-05-27T01:20:18.368Z,4.80
2023-05-27T01:22:48.477Z,5.27
2023-05-27T01:25:17.096Z,4.80
2023-05-27T01:27:45.992Z,4.87
2023-05-27T01:30:15.351Z,4.50
2023-05-27T01:32:45.899Z,5.30
2023-05-27T01:35:19.125Z,4.93
2023-05-27T01:37:48.656Z,5.17
2023-05-27T01:40:16.908Z,4.87
2023-05-27T01:42:46.819Z,4.50
2023-05-27T01:45:15.092Z,5.43
2023-05-27T01:47:44.827Z,5.50
2023-05-27T01:50:12.765Z,4.73
2023-05-27T01:52:41.024Z,4.97
2023-05-27T01:55:12.868Z,5.20
2023-05-27T01:57:40.871Z,5.60
2023-05-27T02:00:10.784Z,5.07
2023-05-27T02:02:45.905Z,5.30
2023-05-27T02:05:18.739Z,5.50
2023-05-27T02:07:46.509Z,5.20
2023-05-27T02:10:15.554Z,5.10
2023-05-27T02:12:43.495Z,5.10
2023-05-27T02:15:11.503Z,4.50
2023-05-27T02:17:40.003Z,4.90
2023-05-27T02:20:08.358Z,4.93
2023-05-27T02:22:37.258Z,5.10
2023-05-27T02:25:05.178Z,5.43
2023-05-27T02:27:35.268Z,4.70
2023-05-27T02:30:03.614Z,5.10
2023-05-27T02:32:33.635Z,5.30
2023-05-27T02:35:01.535Z,5.00
2023-05-27T02:37:29.566Z,4.43
2023-05-27T02:39:58.499Z,5.07
2023-05-27T02:42:26.251Z,5.20
2023-05-27T02:44:55.595Z,5.37
2023-05-27T02:47:24.810Z,4.83
2023-05-27T02:49:52.795Z,5.07
2023-05-27T02:52:20.774Z,4.77
2023-05-27T02:54:48.607Z,5.30
2023-05-27T02:57:17.094Z,5.07
2023-05-27T02:59:47.140Z,4.30
2023-05-27T03:02:16.284Z,4.80
2023-05-27T03:04:44.421Z,4.70
2023-05-27T03:07:12.811Z,5.07
2023-05-27T03:09:40.705Z,6.10
2023-05-27T03:12:08.691Z,6.20
2023-05-27T03:14:36.855Z,5.00
2023-05-27T03:17:04.794Z,5.23
2023-05-27T03:19:34.137Z,5.00
2023-05-27T03:22:02.210Z,5.37
2023-05-27T03:24:31.139Z,5.53
2023-05-27T03:26:59.294Z,5.30
2023-05-27T03:29:27.219Z,5.20
2023-05-27T03:31:55.163Z,5.23
2023-05-27T03:34:23.444Z,5.40
2023-05-27T03:36:52.841Z,4.90
2023-05-27T03:39:25.586Z,5.20
2023-05-27T03:41:57.626Z,4.90
2023-05-27T03:44:25.459Z,4.80
2023-05-27T03:46:53.879Z,5.20
2023-05-27T03:49:22.406Z,6.30
2023-05-27T03:51:52.150Z,5.87
2023-05-27T03:54:19.976Z,5.10
2023-05-27T03:56:49.051Z,5.67
2023-05-27T03:59:16.785Z,5.20
2023-05-27T04:01:45.581Z,5.67
2023-05-27T04:04:13.428Z,4.80
2023-05-27T04:06:42.788Z,4.90
2023-05-27T04:09:12.321Z,5.20
2023-05-27T04:11:40.134Z,5.40
2023-05-27T04:14:08.399Z,5.07
2023-05-27T04:16:42.229Z,5.33
2023-05-27T04:19:10.918Z,4.77
2023-05-27T04:21:38.794Z,5.37
2023-05-27T04:24:07.358Z,5.03
2023-05-27T04:26:36.763Z,4.50
2023-05-27T04:29:07.248Z,5.57
2023-05-27T04:31:37.622Z,5.80
2023-05-27T04:34:11.096Z,6.00
2023-05-27T04:36:39.553Z,5.80
2023-05-27T04:39:14.385Z,5.87
2023-05-27T04:41:46.115Z,4.80
2023-05-27T04:44:21.473Z,4.73
2023-05-27T04:46:51.397Z,5.30
2023-05-27T04:49:19.441Z,5.43
2023-05-27T04:51:48.591Z,4.40
2023-05-27T04:54:20.332Z,5.10
2023-05-27T04:56:52.784Z,4.20
2023-05-27T04:59:30.600Z,5.60
2023-05-27T05:02:12.323Z,5.53
2023-05-27T05:04:47.377Z,5.17
2023-05-27T05:07:15.713Z,5.03
2023-05-27T05:09:43.740Z,5.80
2023-05-27T05:12:20.536Z,4.60
2023-05-27T05:14:51.264Z,4.30
2023-05-27T05:17:19.356Z,4.67
2023-05-27T05:19:48.595Z,4.77
2023-05-27T05:22:19.475Z,5.87
2023-05-27T05:24:50.246Z,7.00
2023-05-27T05:27:20.738Z,5.10
2023-05-27T05:29:48.763Z,5.03
2023-05-27T05:32:17.401Z,4.10
2023-05-27T05:34:45.488Z,4.77
2023-05-27T05:37:13.602Z,4.50
2023-05-27T05:39:43.236Z,4.07
2023-05-27T05:42:11.114Z,4.80
2023-05-27T05:44:40.455Z,4.10
2023-05-27T05:47:10.799Z,3.80
2023-05-27T05:49:38.610Z,3.50
2023-05-27T05:52:08.544Z,2.80
2023-05-27T05:54:37.041Z,3.30
2023-05-27T05:57:05.040Z,3.40
2023-05-27T05:59:33.050Z,3.33
2023-05-27T06:02:02.278Z,3.33
2023-05-27T06:04:30.056Z,3.57
2023-05-27T06:07:00.001Z,3.40
2023-05-27T06:09:49.360Z,2.87
2023-05-27T06:12:28.817Z,2.57
2023-05-27T06:14:57.078Z,3.10
2023-05-27T06:17:33.744Z,2.70
2023-05-27T06:20:01.737Z,3.33
2023-05-27T06:22:29.800Z,3.10
2023-05-27T06:24:58.024Z,2.53
2023-05-27T06:27:39.374Z,2.20
2023-05-27T06:30:10.984Z,3.20
2023-05-27T06:32:44.393Z,3.07
2023-05-27T06:35:12.579Z,3.00
2023-05-27T06:37:40.544Z,2.80
2023-05-27T06:40:09.719Z,1.70
2023-05-27T06:42:37.992Z,2.43
2023-05-27T06:45:20.149Z,2.47
2023-05-27T06:47:56.874Z,3.47
2023-05-27T06:50:28.230Z,3.27
2023-05-27T06:52:56.550Z,2.00
2023-05-27T06:55:36.930Z,2.27
2023-05-27T06:58:15.709Z,2.27
2023-05-27T07:00:58.870Z,1.70
2023-05-27T07:03:49.122Z,1.90
2023-05-27T07:06:22.894Z,1.33
2023-05-27T07:08:53.184Z,1.40
2023-05-27T07:11:29.008Z,1.50
2023-05-27T07:14:01.998Z,1.60
2023-05-27T07:16:33.757Z,1.40
2023-05-27T07:19:03.442Z,2.80
2023-05-27T07:21:37.714Z,1.27
2023-05-27T07:24:11.798Z,2.10
2023-05-27T07:26:41.269Z,1.63
2023-05-27T07:29:09.017Z,1.60
2023-05-27T07:31:57.278Z,1.43
2023-05-27T07:34:29.396Z,1.10
2023-05-27T07:36:57.868Z,1.30
2023-05-27T07:39:25.802Z,1.13
2023-05-27T07:41:53.948Z,1.00
2023-05-27T07:44:22.011Z,1.20
2023-05-27T07:46:50.338Z,0.90
2023-05-27T07:49:18.268Z,4.00
2023-05-27T07:52:16.867Z,1.50
2023-05-27T07:54:54.761Z,1.37
2023-05-27T07:57:25.140Z,1.10
2023-05-27T07:59:53.143Z,2.03
2023-05-27T08:02:23.069Z,1.30
2023-05-27T08:04:52.372Z,1.27
2023-05-27T08:07:40.145Z,2.20
2023-05-27T08:10:12.996Z,2.03
2023-05-27T08:12:56.200Z,1.70
2023-05-27T08:15:42.193Z,2.23
2023-05-27T08:18:23.258Z,1.93
2023-05-27T08:21:06.608Z,1.70
2023-05-27T08:23:54.625Z,1.50
2023-05-27T08:26:41.129Z,1.17
2023-05-27T08:29:47.540Z,1.40
2023-05-27T08:32:29.430Z,0.97
2023-05-27T08:34:58.809Z,1.13
2023-05-27T08:37:26.709Z,1.10
2023-05-27T08:39:58.854Z,1.40
2023-05-27T08:42:41.228Z,1.03
2023-05-27T08:45:12.362Z,0.80
2023-05-27T08:47:40.858Z,1.43
2023-05-27T08:50:12.774Z,2.57
2023-05-27T08:52:47.011Z,1.10
2023-05-27T08:55:17.315Z,1.33
2023-05-27T08:57:49.131Z,1.20
2023-05-27T09:00:18.160Z,1.10
2023-05-27T09:02:48.286Z,1.00
2023-05-27T09:05:17.019Z,1.63
2023-05-27T09:07:44.948Z,1.30
2023-05-27T09:10:12.906Z,1.30
2023-05-27T09:12:44.472Z,1.20
2023-05-27T09:15:12.485Z,1.80
2023-05-27T09:17:42.278Z,1.00
2023-05-27T09:20:12.376Z,2.47
2023-05-27T09:22:40.703Z,1.50
2023-05-27T09:25:09.730Z,2.10
2023-05-27T09:27:37.934Z,2.00
2023-05-27T09:30:11.744Z,1.30
2023-05-27T09:32:39.649Z,1.10
2023-05-27T09:35:08.327Z,1.67
2023-05-27T09:37:36.968Z,1.10
2023-05-27T09:40:07.897Z,2.40
2023-05-27T09:42:43.266Z,1.00
2023-05-27T09:45:15.058Z,1.70
2023-05-27T09:47:43.547Z,8.37
2023-05-27T09:50:12.194Z,10.30
2023-05-27T09:52:48.656Z,9.27
2023-05-27T09:55:22.064Z,20.80
2023-05-27T09:57:50.521Z,15.20
2023-05-27T10:00:20.016Z,20.53
2023-05-27T10:02:48.625Z,27.57
2023-05-27T10:05:18.204Z,35.93
2023-05-27T10:08:08.695Z,17.30
2023-05-27T10:10:35.872Z,24.73
2023-05-27T10:13:04.166Z,12.80
2023-05-27T10:15:34.591Z,29.27
2023-05-27T10:18:04.654Z,49.80
2023-05-27T10:20:32.995Z,4.87
2023-05-27T10:23:11.911Z,29.83
2023-05-27T10:25:40.522Z,3.10
2023-05-27T10:28:09.023Z,5.20
2023-05-27T10:30:47.553Z,2.17
2023-05-27T10:33:15.524Z,3.43
2023-05-27T10:35:44.006Z,5.50
2023-05-27T10:38:18.640Z,3.37
2023-05-27T10:40:48.165Z,2.17
2023-05-27T10:43:19.879Z,1.83
2023-05-27T10:45:49.496Z,6.10
2023-05-27T10:48:18.552Z,17.07
2023-05-27T10:50:53.154Z,12.67
2023-05-27T10:53:22.152Z,30.37
2023-05-27T10:55:50.236Z,60.40
2023-05-27T10:58:18.427Z,33.90
2023-05-27T11:00:46.727Z,33.87
2023-05-27T11:03:20.078Z,14.60
2023-05-27T11:05:48.081Z,72.20
2023-05-27T11:08:15.996Z,102.37
2023-05-27T11:10:44.354Z,21.97
2023-05-27T11:13:12.899Z,57.73
2023-05-27T11:15:41.985Z,1.80
2023-05-27T11:18:10.111Z,6.30
2023-05-27T11:20:39.816Z,11.13
2023-05-27T11:23:07.844Z,3.17
2023-05-27T11:25:44.950Z,41.23
2023-05-27T11:28:18.558Z,2.30
2023-05-27T11:30:47.892Z,12.03
2023-05-27T11:33:32.491Z,1.80
2023-05-27T11:38:59.406Z,2.43
2023-05-27T11:41:28.765Z,1.80
2023-05-27T11:43:57.920Z,2.20
2023-05-27T11:46:26.103Z,1.90
2023-05-27T11:48:53.944Z,2.03
2023-05-27T11:51:31.083Z,2.33
2023-05-27T11:54:02.568Z,2.53
2023-05-27T11:56:30.807Z,2.93
2023-05-27T11:58:58.846Z,3.13
2023-05-27T12:01:27.483Z,2.17
2023-05-27T12:03:55.454Z,1.93
2023-05-27T12:06:23.407Z,1.80
2023-05-27T12:08:52.609Z,2.70
2023-05-27T12:11:20.716Z,3.00
2023-05-27T12:13:48.411Z,2.10
2023-05-27T12:16:17.117Z,2.10
2023-05-27T12:18:46.570Z,2.20
2023-05-27T12:21:14.672Z,2.20
2023-05-27T12:23:43.017Z,3.27
2023-05-27T12:26:13.915Z,2.00
2023-05-27T12:28:41.870Z,2.47
2023-05-27T12:31:10.339Z,2.00
2023-05-27T12:33:38.129Z,1.70
2023-05-27T12:36:06.715Z,1.97
2023-05-27T12:38:35.397Z,2.57
2023-05-27T12:41:03.188Z,1.87
2023-05-27T12:43:32.646Z,1.60
2023-05-27T12:46:00.936Z,2.63
2023-05-27T12:48:28.820Z,5.30
2023-05-27T12:50:56.608Z,3.50
2023-05-27T12:53:25.190Z,2.90
2023-05-27T12:55:53.120Z,2.10
2023-05-27T12:58:21.199Z,1.70
2023-05-27T13:00:50.774Z,1.87
2023-05-27T13:03:18.768Z,1.60
2023-05-27T13:05:46.943Z,1.37
2023-05-27T13:08:14.908Z,1.60
2023-05-27T13:10:42.886Z,1.53
2023-05-27T13:13:11.938Z,1.70
2023-05-27T13:15:39.992Z,2.10
2023-05-27T13:18:11.535Z,1.40
2023-05-27T13:20:39.800Z,2.17
2023-05-27T13:23:08.222Z,1.80
2023-05-27T13:25:36.042Z,1.90
2023-05-27T13:28:04.077Z,1.93
2023-05-27T13:30:31.864Z,1.30
2023-05-27T13:32:59.943Z,1.90
2023-05-27T13:35:29.116Z,2.00
2023-05-27T13:37:57.089Z,1.90
2023-05-27T13:40:25.166Z,2.37
2023-05-27T13:42:55.229Z,2.10
2023-05-27T13:45:24.521Z,2.47
2023-05-27T13:47:52.439Z,1.50
2023-05-27T13:50:20.498Z,2.13
2023-05-27T13:52:49.796Z,2.53
2023-05-27T13:55:18.199Z,3.03
2023-05-27T13:57:45.885Z,2.10
2023-05-27T14:00:14.496Z,1.93
2023-05-27T14:02:42.203Z,2.03
2023-05-27T14:05:10.697Z,2.10
2023-05-27T14:07:41.497Z,2.47
2023-05-27T14:10:11.577Z,2.67
2023-05-27T14:12:41.542Z,1.73
2023-05-27T14:15:10.220Z,1.67
2023-05-27T14:17:38.394Z,4.20
2023-05-27T14:20:11.870Z,2.00
2023-05-27T14:22:40.153Z,2.40
2023-05-27T14:25:08.655Z,1.80
2023-05-27T14:27:37.970Z,1.80
2023-05-27T14:30:07.000Z,1.60
2023-05-27T14:32:35.255Z,1.87
2023-05-27T14:35:03.389Z,1.50
2023-05-27T14:37:31.124Z,2.73
2023-05-27T14:40:00.369Z,2.10
2023-05-27T14:42:28.367Z,1.30
2023-05-27T14:44:57.616Z,1.70
2023-05-27T14:47:25.397Z,1.70
2023-05-27T14:49:53.520Z,2.37
2023-05-27T14:52:21.684Z,2.67
2023-05-27T14:54:49.670Z,3.03
2023-05-27T14:57:17.416Z,6.70
2023-05-27T14:59:45.346Z,1.70
2023-05-27T15:02:14.516Z,1.90
2023-05-27T15:04:42.475Z,2.40
2023-05-27T15:07:10.226Z,3.30
2023-05-27T15:09:38.268Z,2.37
2023-05-27T15:12:06.423Z,2.30
2023-05-27T15:14:34.571Z,2.50
2023-05-27T15:17:03.295Z,2.20
2023-05-27T15:19:33.146Z,1.70
2023-05-27T15:22:01.438Z,1.40
2023-05-27T15:24:29.167Z,2.00
2023-05-27T15:26:57.935Z,2.00
2023-05-27T15:29:29.351Z,1.90
2023-05-27T15:31:57.209Z,1.70
2023-05-27T15:34:25.175Z,1.90
2023-05-27T15:36:55.202Z,1.60
2023-05-27T15:39:23.920Z,1.90
2023-05-27T15:41:51.707Z,2.90
2023-05-27T15:44:20.576Z,3.03
2023-05-27T15:46:48.579Z,3.57
2023-05-27T15:49:16.583Z,1.73
2023-05-27T15:51:44.592Z,1.50
2023-05-27T15:54:14.387Z,1.90
2023-05-27T15:56:42.686Z,1.70
2023-05-27T15:59:10.798Z,2.27
2023-05-27T16:01:39.126Z,3.73
2023-05-27T16:04:07.759Z,2.00
2023-05-27T16:06:35.990Z,2.50
2023-05-27T16:09:04.652Z,3.97
2023-05-27T16:11:33.816Z,2.53
2023-05-27T16:14:02.441Z,2.43
2023-05-27T16:16:33.902Z,1.90
2023-05-27T16:19:02.075Z,3.10
2023-05-27T16:21:29.810Z,4.37
2023-05-27T16:24:06.998Z,3.60
2023-05-27T16:26:37.592Z,2.50
2023-05-27T16:29:05.395Z,2.43
2023-05-27T16:31:33.314Z,2.80
2023-05-27T16:34:01.390Z,2.80
2023-05-27T16:36:30.231Z,2.40
2023-05-27T16:38:58.011Z,1.73
2023-05-27T16:41:26.787Z,2.07
2023-05-27T16:43:56.360Z,2.67
2023-05-27T16:46:24.442Z,2.50
2023-05-27T16:48:52.315Z,3.00
2023-05-27T16:51:20.123Z,2.47
2023-05-27T16:53:47.925Z,3.60
2023-05-27T16:56:16.175Z,3.03
2023-05-27T16:58:44.003Z,3.03
2023-05-27T17:01:13.198Z,2.17
2023-05-27T17:03:41.147Z,3.67
2023-05-27T17:06:13.510Z,2.77
2023-05-27T17:08:41.245Z,4.27
2023-05-27T17:11:09.161Z,2.60
2023-05-27T17:13:37.119Z,2.73
2023-05-27T17:16:05.053Z,2.70
2023-05-27T17:18:34.765Z,2.70
2023-05-27T17:21:02.854Z,2.77
2023-05-27T17:23:30.764Z,2.77
2023-05-27T17:25:58.967Z,2.63
2023-05-27T17:28:27.249Z,3.47
2023-05-27T17:30:55.308Z,3.30
2023-05-27T17:33:23.078Z,3.73
2023-05-27T17:35:52.673Z,4.63
2023-05-27T17:38:23.704Z,5.87
2023-05-27T17:40:51.820Z,4.07
2023-05-27T17:43:19.880Z,2.97
2023-05-27T17:45:48.216Z,3.37
2023-05-27T17:48:16.207Z,3.20
2023-05-27T17:50:44.227Z,2.17
2023-05-27T17:53:13.367Z,2.53
2023-05-27T17:55:41.482Z,2.33
2023-05-27T17:58:12.188Z,2.00
2023-05-27T18:00:40.982Z,2.23
2023-05-27T18:03:09.051Z,2.67
2023-05-27T18:05:37.014Z,2.10
2023-05-27T18:08:04.755Z,2.70
2023-05-27T18:10:34.643Z,6.70
2023-05-27T18:13:02.822Z,6.03
2023-05-27T18:15:30.644Z,3.10
2023-05-27T18:17:58.699Z,3.07
2023-05-27T18:20:26.707Z,2.93
2023-05-27T18:22:54.725Z,2.80
2023-05-27T18:25:23.234Z,2.90
2023-05-27T18:27:53.165Z,3.13
2023-05-27T18:30:21.042Z,3.60
2023-05-27T18:32:50.104Z,4.40
2023-05-27T18:37:49.683Z,3.77
2023-05-27T18:40:17.708Z,3.27
2023-05-27T18:42:46.029Z,3.77
2023-05-27T18:45:15.190Z,5.47
2023-05-27T18:47:44.844Z,5.20
2023-05-27T18:50:20.348Z,5.47
2023-05-27T18:52:56.405Z,3.73
2023-05-27T18:55:24.232Z,3.80
2023-05-27T18:57:52.413Z,4.53
2023-05-27T19:00:21.647Z,4.90
2023-05-27T19:02:49.444Z,4.60
2023-05-27T19:05:17.233Z,4.10
2023-05-27T19:07:45.380Z,4.50
2023-05-27T19:10:13.117Z,8.33
2023-05-27T19:12:41.154Z,5.17
2023-05-27T19:15:09.821Z,5.20
2023-05-27T19:17:39.276Z,4.57
2023-05-27T19:20:08.358Z,3.80
2023-05-27T19:22:36.285Z,4.53
2023-05-27T19:25:04.024Z,6.80
2023-05-27T19:27:31.799Z,6.27
2023-05-27T19:29:59.991Z,9.50
2023-05-27T19:32:28.246Z,12.10
2023-05-27T19:34:57.775Z,6.40
2023-05-27T19:37:25.639Z,5.73
2023-05-27T19:39:54.669Z,7.87
2023-05-27T19:42:23.151Z,7.67
2023-05-27T19:44:53.416Z,5.97
2023-05-27T19:47:21.585Z,5.10
2023-05-27T19:49:49.499Z,5.53
2023-05-27T19:52:18.628Z,5.40
2023-05-27T19:54:46.900Z,5.33
2023-05-27T19:57:14.993Z,11.80
2023-05-27T19:59:42.947Z,5.60
2023-05-27T20:02:11.051Z,6.90
2023-05-27T20:04:38.984Z,6.50
2023-05-27T20:07:07.028Z,6.03
2023-05-27T20:09:36.195Z,6.20
2023-05-27T20:12:05.783Z,7.37
2023-05-27T20:14:33.989Z,6.87
2023-05-27T20:17:04.954Z,6.90
2023-05-27T20:19:33.407Z,6.77
2023-05-27T20:22:01.159Z,7.70
2023-05-27T20:24:29.088Z,7.70
2023-05-27T20:26:58.241Z,8.00
2023-05-27T20:29:26.676Z,6.80
2023-05-27T20:31:54.782Z,7.47
2023-05-27T20:34:23.688Z,7.50
2023-05-27T20:36:51.560Z,7.90
2023-05-27T20:39:19.463Z,7.23
2023-05-27T20:41:47.256Z,6.43
2023-05-27T20:44:16.628Z,9.77
2023-05-27T20:46:45.679Z,7.87
2023-05-27T20:49:13.818Z,6.87
2023-05-27T20:51:41.989Z,13.77
2023-05-27T20:54:10.139Z,12.83
2023-05-27T20:56:38.077Z,8.27
2023-05-27T20:59:06.044Z,8.37
2023-05-27T21:01:35.349Z,13.47
2023-05-27T21:04:06.159Z,9.07
2023-05-27T21:06:34.967Z,8.10
2023-05-27T21:09:02.740Z,10.20
2023-05-27T21:11:30.769Z,9.10
2023-05-27T21:13:58.782Z,9.63
2023-05-27T21:16:27.455Z,9.40
2023-05-27T21:18:57.082Z,8.70
2023-05-27T21:21:24.874Z,8.00
2023-05-27T21:23:52.637Z,10.70
2023-05-27T21:26:20.879Z,9.63
2023-05-27T21:28:48.797Z,9.40
2023-05-27T21:31:16.655Z,14.10
2023-05-27T21:33:44.593Z,7.63
2023-05-27T21:36:13.769Z,10.60
2023-05-27T21:38:47.009Z,12.80
2023-05-27T21:41:14.978Z,12.30
2023-05-27T21:43:42.814Z,8.40
2023-05-27T21:46:11.169Z,9.47
2023-05-27T21:48:38.974Z,11.07
2023-05-27T21:51:06.915Z,9.07
2023-05-27T21:53:36.158Z,8.60
2023-05-27T21:56:05.658Z,10.53
2023-05-27T21:58:33.936Z,8.50
2023-05-27T22:01:02.094Z,10.47
2023-05-27T22:03:30.127Z,8.03
2023-05-27T22:05:58.190Z,7.90
2023-05-27T22:08:26.377Z,8.90
2023-05-27T22:10:55.871Z,8.53
2023-05-27T22:13:23.621Z,7.87
2023-05-27T22:15:52.141Z,11.10
2023-05-27T22:18:20.486Z,9.50
2023-05-27T22:20:48.595Z,8.40
2023-05-27T22:23:16.582Z,9.80
2023-05-27T22:25:44.472Z,10.73
2023-05-27T22:28:13.617Z,10.57
2023-05-27T22:30:41.760Z,11.40
2023-05-27T22:33:09.721Z,8.13
2023-05-27T22:35:38.018Z,8.13
2023-05-27T22:38:05.884Z,7.97
2023-05-27T22:40:33.837Z,10.60
2023-05-27T22:43:01.545Z,8.00
2023-05-27T22:45:32.120Z,6.57
2023-05-27T22:48:00.753Z,8.47
2023-05-27T22:50:28.523Z,15.73
2023-05-27T22:52:56.405Z,30.23
2023-05-27T22:55:24.346Z,18.37
2023-05-27T22:57:52.551Z,19.67
2023-05-27T23:00:20.924Z,13.67
2023-05-27T23:02:50.119Z,10.40
2023-05-27T23:05:18.074Z,11.37
2023-05-27T23:07:45.826Z,9.53
2023-05-27T23:10:13.586Z,11.47
2023-05-27T23:12:41.579Z,12.33
2023-05-27T23:15:10.021Z,13.47
2023-05-27T23:17:37.798Z,8.20
2023-05-27T23:20:09.414Z,7.63
2023-05-27T23:22:37.398Z,11.20
2023-05-27T23:25:07.645Z,8.33
2023-05-27T23:27:36.323Z,9.30
2023-05-27T23:30:04.654Z,7.80
2023-05-27T23:32:32.546Z,8.20
2023-05-27T23:35:00.531Z,8.17
2023-05-27T23:37:29.891Z,7.23
2023-05-27T23:39:57.651Z,9.20
2023-05-27T23:42:25.488Z,8.20
2023-05-27T23:44:53.361Z,8.03
2023-05-27T23:47:21.122Z,8.57
2023-05-27T23:49:49.657Z,8.80
2023-05-27T23:52:17.640Z,9.03
2023-05-27T23:54:47.062Z,8.40
2023-05-27T23:57:15.372Z,7.97
2023-05-27T23:59:43.201Z,7.90
